createdAt,value
2023-03-15T00:01:46.721Z,3.36
2023-03-15T00:04:14.093Z,3.16
2023-03-15T00:06:40.997Z,3.34
2023-03-15T00:09:07.811Z,3.44
2023-03-15T00:11:34.553Z,3.51
2023-03-15T00:14:02.398Z,3.28
2023-03-15T00:16:29.094Z,3.65
2023-03-15T00:18:56.158Z,3.54
2023-03-15T00:21:23.327Z,3.72
2023-03-15T00:23:50.342Z,3.39
2023-03-15T00:26:17.343Z,3.66
2023-03-15T00:28:44.334Z,3.55
2023-03-15T00:31:13.998Z,3.73
2023-03-15T00:33:41.577Z,3.97
2023-03-15T00:36:10.532Z,4.03
2023-03-15T00:38:38.664Z,4.07
2023-03-15T00:41:10.797Z,3.97
2023-03-15T00:43:37.443Z,3.85
2023-03-15T00:46:05.071Z,3.85
2023-03-15T00:48:32.229Z,3.78
2023-03-15T00:51:21.376Z,3.60
2023-03-15T00:53:49.619Z,3.71
2023-03-15T00:56:20.136Z,3.60
2023-03-15T00:58:47.481Z,3.65
2023-03-15T01:01:19.851Z,3.51
2023-03-15T01:03:47.195Z,3.53
2023-03-15T01:06:16.489Z,3.38
2023-03-15T01:08:44.035Z,3.56
2023-03-15T01:11:13.467Z,3.65
2023-03-15T01:13:40.744Z,3.69
2023-03-15T01:16:09.326Z,3.65
2023-03-15T01:18:37.751Z,3.86
2023-03-15T01:21:09.442Z,3.63
2023-03-15T01:23:36.146Z,3.29
2023-03-15T01:26:04.889Z,2.99
2023-03-15T01:28:31.476Z,3.21
2023-03-15T01:30:59.871Z,3.18
2023-03-15T01:33:27.586Z,3.08
2023-03-15T01:36:06.661Z,3.12
2023-03-15T01:38:35.157Z,3.05
2023-03-15T01:41:02.197Z,2.80
2023-03-15T01:43:34.460Z,3.05
2023-03-15T01:46:01.481Z,2.91
2023-03-15T01:48:45.965Z,2.63
2023-03-15T01:51:44.963Z,2.66
2023-03-15T01:54:26.763Z,2.61
2023-03-15T01:57:15.207Z,2.51
2023-03-15T01:59:52.368Z,2.50
2023-03-15T02:02:22.517Z,2.63
2023-03-15T02:04:58.134Z,2.41
2023-03-15T02:07:27.536Z,2.36
2023-03-15T02:10:04.082Z,2.37
2023-03-15T02:12:38.361Z,2.34
2023-03-15T02:15:06.110Z,2.49
2023-03-15T02:17:41.742Z,2.42
2023-03-15T02:20:27.961Z,2.42
2023-03-15T02:23:00.120Z,2.33
2023-03-15T02:25:27.399Z,2.38
2023-03-15T02:27:55.217Z,2.35
2023-03-15T02:30:22.123Z,2.51
2023-03-15T02:32:49.605Z,2.15
2023-03-15T02:35:28.966Z,2.08
2023-03-15T02:37:56.032Z,2.44
2023-03-15T02:40:25.274Z,2.29
2023-03-15T02:42:55.794Z,2.24
2023-03-15T02:45:27.053Z,2.40
2023-03-15T02:47:53.936Z,2.22
2023-03-15T02:50:20.603Z,2.54
2023-03-15T02:52:47.157Z,2.65
2023-03-15T02:55:13.731Z,2.62
2023-03-15T02:57:40.397Z,2.15
2023-03-15T03:00:13.232Z,2.09
2023-03-15T03:02:46.360Z,2.35
2023-03-15T03:05:14.863Z,2.32
2023-03-15T03:07:44.568Z,2.21
2023-03-15T03:10:16.174Z,2.24
2023-03-15T03:12:53.467Z,2.26
2023-03-15T03:15:25.752Z,2.27
2023-03-15T03:17:52.322Z,2.25
2023-03-15T03:20:19.129Z,2.37
2023-03-15T03:22:47.094Z,2.19
2023-03-15T03:25:13.667Z,2.25
2023-03-15T03:27:41.077Z,2.08
2023-03-15T03:30:13.047Z,2.35
2023-03-15T03:32:44.356Z,2.32
2023-03-15T03:35:14.733Z,2.11
2023-03-15T03:37:42.739Z,2.25
2023-03-15T03:40:14.762Z,2.33
2023-03-15T03:42:41.676Z,2.42
2023-03-15T03:45:09.218Z,2.41
2023-03-15T03:47:41.829Z,2.31
2023-03-15T03:50:12.880Z,2.42
2023-03-15T03:52:43.774Z,2.25
2023-03-15T03:55:14.720Z,2.45
2023-03-15T03:57:43.010Z,2.69
2023-03-15T04:00:14.921Z,2.47
2023-03-15T04:02:44.376Z,2.57
2023-03-15T04:05:13.935Z,2.65
2023-03-15T04:07:41.524Z,2.49
2023-03-15T04:10:14.692Z,2.55
2023-03-15T04:12:44.184Z,2.43
2023-03-15T04:15:12.256Z,2.41
2023-03-15T04:17:39.435Z,2.43
2023-03-15T04:20:07.927Z,2.52
2023-03-15T04:22:37.509Z,2.38
2023-03-15T04:25:26.566Z,2.63
2023-03-15T04:28:03.824Z,2.65
2023-03-15T04:30:50.965Z,2.35
2023-03-15T04:33:32.549Z,2.61
2023-03-15T04:36:07.991Z,2.47
2023-03-15T04:39:03.327Z,2.55
2023-03-15T04:41:50.968Z,2.73
2023-03-15T04:44:27.072Z,2.71
2023-03-15T04:46:55.331Z,2.68
2023-03-15T04:49:44.919Z,2.72
2023-03-15T04:52:29.945Z,2.59
2023-03-15T04:55:25.337Z,2.73
2023-03-15T04:58:12.149Z,2.62
2023-03-15T05:00:57.475Z,2.68
2023-03-15T05:03:28.452Z,2.76
2023-03-15T05:06:30.141Z,2.98
2023-03-15T05:09:06.319Z,2.96
2023-03-15T05:11:53.152Z,2.73
2023-03-15T05:14:40.025Z,2.65
2023-03-15T05:17:15.411Z,2.70
2023-03-15T05:19:51.805Z,2.75
2023-03-15T05:22:37.118Z,2.76
2023-03-15T05:25:15.534Z,2.68
2023-03-15T05:28:18.282Z,2.78
2023-03-15T05:31:08.389Z,2.81
2023-03-15T05:34:12.116Z,2.65
2023-03-15T05:36:57.336Z,2.38
2023-03-15T05:39:34.859Z,2.41
2023-03-15T05:42:39.880Z,2.62
2023-03-15T05:45:47.029Z,2.29
2023-03-15T05:48:27.647Z,2.62
2023-03-15T05:51:13.245Z,2.57
2023-03-15T05:53:58.376Z,2.33
2023-03-15T05:56:36.069Z,2.53
2023-03-15T05:59:33.198Z,2.47
2023-03-15T06:02:18.406Z,2.60
2023-03-15T06:04:57.187Z,2.36
2023-03-15T06:07:26.524Z,2.51
2023-03-15T06:09:53.353Z,2.53
2023-03-15T06:12:20.138Z,2.57
2023-03-15T06:14:47.212Z,2.66
2023-03-15T06:17:13.813Z,2.69
2023-03-15T06:19:43.504Z,2.70
2023-03-15T06:22:10.396Z,2.49
2023-03-15T06:24:50.660Z,2.61
2023-03-15T06:27:21.782Z,2.66
2023-03-15T06:29:50.462Z,2.72
2023-03-15T06:32:19.622Z,2.61
2023-03-15T06:34:46.482Z,2.71
2023-03-15T06:37:22.744Z,2.50
2023-03-15T06:39:55.973Z,2.63
2023-03-15T06:42:22.952Z,2.84
2023-03-15T06:44:51.176Z,2.62
2023-03-15T06:47:18.814Z,2.81
2023-03-15T06:49:50.154Z,2.90
2023-03-15T06:52:18.191Z,2.69
2023-03-15T06:54:44.896Z,2.72
2023-03-15T06:57:11.667Z,2.63
2023-03-15T06:59:38.264Z,2.78
2023-03-15T07:02:04.956Z,2.87
2023-03-15T07:04:31.489Z,3.07
2023-03-15T07:06:58.153Z,3.20
2023-03-15T07:09:24.832Z,2.81
2023-03-15T07:11:51.388Z,2.93
2023-03-15T07:14:17.909Z,3.12
2023-03-15T07:16:44.556Z,3.10
2023-03-15T07:19:11.152Z,2.98
2023-03-15T07:21:37.722Z,3.29
2023-03-15T07:24:04.519Z,3.37
2023-03-15T07:26:31.157Z,3.22
2023-03-15T07:28:57.683Z,2.93
2023-03-15T07:31:24.216Z,3.35
2023-03-15T07:33:50.800Z,3.59
2023-03-15T07:36:17.352Z,3.43
2023-03-15T07:38:43.929Z,3.60
2023-03-15T07:41:10.719Z,3.40
2023-03-15T07:43:40.888Z,3.56
2023-03-15T07:46:14.115Z,3.58
2023-03-15T07:48:41.208Z,3.48
2023-03-15T07:51:07.781Z,3.81
2023-03-15T07:53:34.401Z,3.79
2023-03-15T07:56:01.375Z,3.45
2023-03-15T07:58:28.244Z,3.83
2023-03-15T08:00:56.410Z,3.84
2023-03-15T08:03:24.222Z,3.81
2023-03-15T08:05:51.255Z,3.93
2023-03-15T08:08:17.932Z,4.06
2023-03-15T08:10:45.379Z,4.14
2023-03-15T08:13:12.556Z,3.84
2023-03-15T08:15:39.187Z,4.05
2023-03-15T08:18:06.517Z,3.90
2023-03-15T08:20:36.097Z,3.90
2023-03-15T08:23:02.622Z,4.26
2023-03-15T08:25:29.674Z,4.57
2023-03-15T08:27:56.471Z,4.60
2023-03-15T08:30:23.464Z,4.57
2023-03-15T08:32:52.523Z,4.55
2023-03-15T08:35:21.909Z,3.87
2023-03-15T08:37:48.542Z,4.21
2023-03-15T08:40:18.924Z,4.52
2023-03-15T08:42:46.002Z,4.06
2023-03-15T08:45:12.806Z,4.48
2023-03-15T08:47:39.414Z,4.17
2023-03-15T08:50:12.068Z,4.30
2023-03-15T08:52:39.515Z,4.53
2023-03-15T08:55:07.335Z,4.24
2023-03-15T08:57:34.736Z,4.57
2023-03-15T09:00:08.034Z,4.49
2023-03-15T09:02:35.164Z,4.46
2023-03-15T09:05:01.956Z,4.62
2023-03-15T09:07:28.583Z,4.69
2023-03-15T09:09:55.207Z,4.28
2023-03-15T09:12:22.026Z,4.64
2023-03-15T09:14:48.572Z,5.07
2023-03-15T09:17:15.175Z,4.96
2023-03-15T09:19:41.861Z,5.19
2023-03-15T09:22:16.264Z,5.33
2023-03-15T09:24:51.855Z,5.28
2023-03-15T09:27:19.480Z,5.52
2023-03-15T09:29:46.167Z,5.63
2023-03-15T09:32:13.333Z,5.92
2023-03-15T09:34:42.288Z,5.98
2023-03-15T09:37:09.789Z,5.47
2023-03-15T09:39:36.579Z,5.76
2023-03-15T09:42:10.833Z,5.91
2023-03-15T09:44:48.230Z,5.92
2023-03-15T09:47:23.945Z,6.13
2023-03-15T09:50:17.990Z,6.02
2023-03-15T09:52:51.635Z,6.44
2023-03-15T09:55:30.461Z,6.22
2023-03-15T09:58:05.081Z,6.65
2023-03-15T10:00:38.737Z,6.68
2023-03-15T10:03:09.783Z,7.01
2023-03-15T10:05:46.315Z,6.45
2023-03-15T10:08:18.487Z,6.41
2023-03-15T10:11:15.163Z,6.74
2023-03-15T10:14:18.458Z,6.43
2023-03-15T10:16:51.010Z,6.25
2023-03-15T10:19:22.915Z,6.27
2023-03-15T10:22:14.409Z,6.46
2023-03-15T10:24:49.541Z,6.93
2023-03-15T10:27:33.891Z,6.88
2023-03-15T10:30:02.085Z,6.66
2023-03-15T10:32:38.366Z,7.00
2023-03-15T10:35:15.833Z,7.12
2023-03-15T10:37:43.251Z,6.88
2023-03-15T10:40:18.151Z,7.17
2023-03-15T10:42:46.700Z,7.27
2023-03-15T10:45:25.031Z,7.21
2023-03-15T10:48:00.457Z,6.84
2023-03-15T10:50:30.935Z,6.80
2023-03-15T10:52:59.651Z,7.38
2023-03-15T10:55:33.567Z,7.60
2023-03-15T10:58:19.231Z,7.59
2023-03-15T11:00:59.851Z,7.58
2023-03-15T11:03:35.444Z,7.96
2023-03-15T11:06:31.444Z,8.16
2023-03-15T11:09:23.690Z,8.11
2023-03-15T11:12:10.808Z,7.66
2023-03-15T11:14:52.971Z,7.65
2023-03-15T11:17:25.988Z,7.88
2023-03-15T11:20:16.526Z,7.42
2023-03-15T11:22:43.987Z,7.74
2023-03-15T11:25:15.775Z,7.77
2023-03-15T11:27:43.674Z,8.31
2023-03-15T11:30:16.275Z,8.40
2023-03-15T11:32:44.687Z,8.72
2023-03-15T11:35:15.344Z,9.07
2023-03-15T11:38:06.254Z,8.92
2023-03-15T11:40:45.276Z,9.12
2023-03-15T11:43:24.528Z,9.51
2023-03-15T11:45:58.396Z,9.05
2023-03-15T11:48:51.456Z,9.17
2023-03-15T11:51:18.280Z,9.36
2023-03-15T11:53:48.494Z,9.80
2023-03-15T11:56:27.394Z,8.94
2023-03-15T11:59:25.349Z,8.46
2023-03-15T12:02:10.824Z,8.47
2023-03-15T12:04:46.325Z,9.08
2023-03-15T12:07:18.969Z,8.41
2023-03-15T12:10:18.353Z,8.98
2023-03-15T12:12:46.944Z,9.67
2023-03-15T12:15:43.359Z,9.49
2023-03-15T12:18:15.868Z,9.50
2023-03-15T12:20:54.707Z,9.60
2023-03-15T12:23:54.407Z,8.94
2023-03-15T12:27:01.772Z,9.48
2023-03-15T12:29:55.842Z,9.22
2023-03-15T12:32:52.754Z,9.42
2023-03-15T12:35:32.857Z,9.21
2023-03-15T12:38:10.438Z,8.87
2023-03-15T12:43:54.593Z,8.45
2023-03-15T12:46:45.959Z,8.90
2023-03-15T12:49:41.757Z,9.07
2023-03-15T12:52:42.081Z,9.38
2023-03-15T12:55:22.467Z,9.56
2023-03-15T12:58:19.485Z,9.29
2023-03-15T13:01:06.567Z,9.41
2023-03-15T13:04:06.723Z,9.64
2023-03-15T13:06:57.525Z,10.24
2023-03-15T13:09:39.942Z,10.24
2023-03-15T13:12:29.535Z,10.84
2023-03-15T13:15:19.912Z,10.31
2023-03-15T13:18:07.739Z,9.80
2023-03-15T13:20:52.739Z,10.17
2023-03-15T13:23:45.052Z,10.44
2023-03-15T13:26:52.852Z,9.34
2023-03-15T13:29:58.126Z,10.68
2023-03-15T13:32:40.756Z,10.70
2023-03-15T13:35:29.999Z,10.72
2023-03-15T13:38:38.500Z,10.26
2023-03-15T13:41:16.700Z,10.93
2023-03-15T13:43:50.404Z,11.62
2023-03-15T13:46:26.297Z,11.32
2023-03-15T13:49:05.862Z,11.33
2023-03-15T13:52:01.207Z,10.56
2023-03-15T13:55:00.121Z,10.93
2023-03-15T13:57:31.951Z,10.25
2023-03-15T14:00:25.197Z,10.98
2023-03-15T14:03:08.542Z,10.65
2023-03-15T14:05:46.222Z,10.12
2023-03-15T14:08:19.957Z,9.96
2023-03-15T14:10:59.024Z,9.86
2023-03-15T14:13:35.115Z,10.21
2023-03-15T14:16:07.289Z,10.33
2023-03-15T14:18:39.585Z,10.01
2023-03-15T14:21:07.634Z,9.59
2023-03-15T14:23:40.864Z,10.27
2023-03-15T14:26:29.721Z,10.74
2023-03-15T14:29:00.658Z,9.76
2023-03-15T14:31:33.002Z,9.24
2023-03-15T14:34:19.002Z,9.25
2023-03-15T14:36:45.781Z,9.02
2023-03-15T14:39:28.591Z,9.25
2023-03-15T14:41:56.156Z,9.36
2023-03-15T14:44:22.779Z,9.34
2023-03-15T14:46:49.684Z,9.18
2023-03-15T14:49:30.419Z,8.98
2023-03-15T14:52:03.817Z,8.96
2023-03-15T14:54:31.918Z,8.52
2023-03-15T14:56:58.545Z,8.13
2023-03-15T14:59:25.313Z,7.63
2023-03-15T15:01:58.451Z,7.75
2023-03-15T15:04:32.184Z,7.84
2023-03-15T15:06:58.871Z,8.33
2023-03-15T15:09:28.047Z,8.72
2023-03-15T15:11:54.853Z,9.01
2023-03-15T15:14:24.676Z,9.40
2023-03-15T15:16:52.255Z,8.70
2023-03-15T15:19:18.960Z,9.45
2023-03-15T15:21:45.658Z,10.05
2023-03-15T15:24:18.591Z,10.49
2023-03-15T15:26:46.211Z,10.83
2023-03-15T15:29:14.892Z,11.24
2023-03-15T15:31:42.187Z,11.26
2023-03-15T15:34:10.119Z,11.04
2023-03-15T15:36:47.250Z,10.63
2023-03-15T15:39:27.482Z,9.89
2023-03-15T15:41:54.247Z,10.19
2023-03-15T15:44:23.820Z,9.48
2023-03-15T15:46:50.430Z,9.45
2023-03-15T15:49:18.063Z,9.80
2023-03-15T15:51:46.259Z,10.57
2023-03-15T15:54:18.917Z,10.28
2023-03-15T15:56:49.379Z,9.50
2023-03-15T15:59:17.590Z,9.08
2023-03-15T16:01:58.999Z,8.99
2023-03-15T16:04:26.995Z,8.81
2023-03-15T16:07:02.811Z,8.94
2023-03-15T16:09:31.957Z,8.73
2023-03-15T16:11:58.705Z,8.55
2023-03-15T16:14:25.342Z,8.73
2023-03-15T16:16:51.870Z,9.07
2023-03-15T16:19:18.503Z,8.63
2023-03-15T16:21:49.741Z,8.54
2023-03-15T16:24:23.298Z,8.43
2023-03-15T16:26:50.583Z,8.40
2023-03-15T16:29:23.122Z,7.96
2023-03-15T16:31:50.943Z,8.48
2023-03-15T16:34:19.476Z,8.39
2023-03-15T16:36:49.597Z,8.22
2023-03-15T16:39:17.779Z,8.33
2023-03-15T16:41:44.396Z,8.66
2023-03-15T16:44:16.501Z,8.83
2023-03-15T16:46:43.617Z,8.89
2023-03-15T16:49:10.381Z,9.03
2023-03-15T16:51:40.778Z,9.07
2023-03-15T16:54:19.628Z,8.94
2023-03-15T16:56:51.312Z,8.85
2023-03-15T16:59:18.024Z,8.91
2023-03-15T17:01:45.570Z,8.88
2023-03-15T17:04:13.735Z,8.86
2023-03-15T17:06:41.610Z,8.91
2023-03-15T17:09:13.954Z,8.87
2023-03-15T17:11:42.663Z,8.68
2023-03-15T17:14:16.401Z,8.60
2023-03-15T17:16:43.145Z,8.54
2023-03-15T17:19:14.304Z,8.46
2023-03-15T17:21:42.771Z,8.33
2023-03-15T17:24:11.024Z,8.24
2023-03-15T17:26:38.352Z,8.18
2023-03-15T17:29:05.472Z,8.04
2023-03-15T17:31:34.855Z,7.98
2023-03-15T17:34:01.553Z,7.84
2023-03-15T17:36:34.673Z,7.79
2023-03-15T17:39:04.351Z,7.72
2023-03-15T17:41:31.891Z,7.58
2023-03-15T17:43:59.036Z,7.50
2023-03-15T17:46:33.179Z,7.36
2023-03-15T17:49:01.510Z,7.34
2023-03-15T17:51:31.565Z,7.14
2023-03-15T17:53:59.578Z,7.01
2023-03-15T17:56:29.942Z,7.09
2023-03-15T17:58:56.535Z,7.06
2023-03-15T18:01:27.397Z,7.02
2023-03-15T18:03:55.126Z,6.90
2023-03-15T18:06:22.334Z,6.84
2023-03-15T18:08:49.903Z,6.80
2023-03-15T18:11:27.437Z,6.76
2023-03-15T18:13:54.600Z,6.75
2023-03-15T18:16:21.437Z,6.72
2023-03-15T18:18:48.096Z,6.70
2023-03-15T18:21:19.008Z,6.61
2023-03-15T18:23:45.641Z,6.49
2023-03-15T18:26:12.987Z,6.41
2023-03-15T18:28:40.284Z,6.41
2023-03-15T18:31:36.453Z,6.31
2023-03-15T18:34:03.673Z,6.16
2023-03-15T18:36:31.521Z,6.17
2023-03-15T18:38:58.462Z,6.10
2023-03-15T18:41:25.617Z,5.96
2023-03-15T18:43:52.675Z,5.85
2023-03-15T18:46:26.991Z,5.72
2023-03-15T18:48:53.864Z,5.70
2023-03-15T18:51:25.702Z,5.70
2023-03-15T18:53:52.720Z,5.69
2023-03-15T18:56:20.501Z,5.54
2023-03-15T18:58:48.422Z,5.43
2023-03-15T19:01:15.856Z,5.31
2023-03-15T19:03:42.843Z,5.26
2023-03-15T19:06:11.722Z,5.18
2023-03-15T19:08:38.777Z,5.18
2023-03-15T19:11:07.898Z,5.04
2023-03-15T19:13:34.895Z,5.02
2023-03-15T19:16:01.806Z,5.00
2023-03-15T19:18:28.988Z,4.92
2023-03-15T19:20:55.526Z,4.90
2023-03-15T19:23:22.086Z,4.81
2023-03-15T19:25:48.747Z,4.72
2023-03-15T19:28:16.097Z,4.60
2023-03-15T19:30:43.090Z,4.47
2023-03-15T19:33:09.998Z,4.25
2023-03-15T19:35:36.983Z,4.38
2023-03-15T19:38:04.015Z,4.34
2023-03-15T19:40:30.688Z,4.23
2023-03-15T19:42:57.359Z,4.29
2023-03-15T19:45:24.032Z,4.25
2023-03-15T19:47:50.758Z,4.29
2023-03-15T19:50:17.618Z,4.30
2023-03-15T19:52:47.158Z,4.40
2023-03-15T19:55:19.149Z,4.39
2023-03-15T19:57:46.084Z,4.25
2023-03-15T20:00:18.460Z,4.13
2023-03-15T20:02:45.883Z,4.13
2023-03-15T20:05:15.208Z,4.09
2023-03-15T20:07:46.126Z,4.08
2023-03-15T20:10:13.656Z,4.12
2023-03-15T20:12:42.410Z,4.02
2023-03-15T20:15:10.795Z,3.93
2023-03-15T20:17:38.112Z,3.91
2023-03-15T20:20:13.608Z,3.83
2023-03-15T20:22:42.785Z,3.69
2023-03-15T20:25:12.355Z,3.69
2023-03-15T20:27:39.134Z,3.58
2023-03-15T20:30:06.899Z,3.49
2023-03-15T20:32:33.562Z,3.55
2023-03-15T20:35:02.187Z,3.54
2023-03-15T20:37:30.243Z,3.55
2023-03-15T20:39:56.896Z,3.49
2023-03-15T20:42:24.698Z,3.49
2023-03-15T20:44:52.604Z,3.40
2023-03-15T20:47:19.529Z,3.32
2023-03-15T20:49:46.146Z,3.32
2023-03-15T20:52:12.677Z,3.38
2023-03-15T20:54:39.297Z,3.23
2023-03-15T20:57:07.098Z,3.33
2023-03-15T20:59:33.686Z,3.30
2023-03-15T21:02:02.697Z,3.22
2023-03-15T21:04:29.323Z,3.28
2023-03-15T21:06:56.177Z,3.30
2023-03-15T21:09:22.863Z,3.24
2023-03-15T21:11:49.996Z,3.29
2023-03-15T21:14:16.513Z,3.31
2023-03-15T21:16:43.084Z,3.18
2023-03-15T21:19:09.664Z,3.18
2023-03-15T21:21:36.307Z,3.01
2023-03-15T21:24:06.173Z,2.96
2023-03-15T21:26:32.814Z,3.05
2023-03-15T21:29:02.295Z,2.91
2023-03-15T21:31:28.876Z,2.87
2023-03-15T21:33:55.775Z,2.76
2023-03-15T21:36:22.360Z,2.71
2023-03-15T21:38:48.972Z,2.64
2023-03-15T21:41:15.626Z,2.65
2023-03-15T21:43:42.207Z,2.68
2023-03-15T21:46:11.968Z,2.58
2023-03-15T21:48:38.740Z,2.57
2023-03-15T21:51:06.719Z,2.56
2023-03-15T21:53:34.546Z,2.62
2023-03-15T21:56:01.771Z,2.57
2023-03-15T21:58:29.291Z,2.53
2023-03-15T22:01:05.119Z,2.56
2023-03-15T22:03:33.600Z,2.57
2023-03-15T22:06:00.882Z,2.55
2023-03-15T22:08:28.287Z,2.46
2023-03-15T22:10:56.581Z,2.42
2023-03-15T22:13:23.521Z,2.41
2023-03-15T22:15:52.114Z,2.39
2023-03-15T22:18:19.346Z,2.41
2023-03-15T22:20:51.005Z,2.39
2023-03-15T22:23:18.329Z,2.40
2023-03-15T22:25:45.109Z,2.37
2023-03-15T22:28:12.224Z,2.44
2023-03-15T22:30:39.079Z,2.36
2023-03-15T22:33:05.777Z,2.28
2023-03-15T22:35:33.461Z,2.28
2023-03-15T22:38:00.222Z,2.23
2023-03-15T22:40:28.369Z,2.30
2023-03-15T22:42:57.136Z,2.32
2023-03-15T22:45:25.920Z,2.25
2023-03-15T22:47:52.802Z,2.27
2023-03-15T22:50:19.624Z,2.27
2023-03-15T22:52:46.303Z,2.28
2023-03-15T22:55:13.038Z,2.27
2023-03-15T22:57:39.906Z,2.26
2023-03-15T23:00:13.690Z,2.30
2023-03-15T23:02:42.093Z,2.27
2023-03-15T23:05:10.211Z,2.28
2023-03-15T23:07:37.034Z,2.26
2023-03-15T23:10:06.094Z,2.23
2023-03-15T23:12:36.174Z,2.23
2023-03-15T23:15:04.508Z,2.22
2023-03-15T23:17:31.427Z,2.14
2023-03-15T23:19:58.034Z,2.23
2023-03-15T23:22:24.700Z,2.13
2023-03-15T23:24:51.543Z,2.12
2023-03-15T23:27:18.204Z,2.13
2023-03-15T23:29:54.072Z,2.02
2023-03-15T23:32:21.898Z,2.02
2023-03-15T23:34:48.796Z,2.06
2023-03-15T23:37:15.496Z,2.10
2023-03-15T23:39:42.972Z,2.06
2023-03-15T23:42:10.315Z,2.11
2023-03-15T23:44:36.899Z,2.08
2023-03-15T23:47:05.640Z,2.06
2023-03-15T23:49:33.067Z,2.11
2023-03-15T23:52:05.813Z,1.97
2023-03-15T23:54:39.405Z,2.10
2023-03-15T23:57:07.474Z,2.11
2023-03-15T23:59:36.160Z,2.02
